MAUNA LOA HI US current weather conditions

sailwx.info

Wind from 347 at 10 knots gusting 21

Air temperature 11.1° C
Dewpoint 10.7° C

Last reported at 2017-Jan-22 06:34 UTC.
Time now 2017-Jan-22 07:57 UTC

Location: N 19°28' W 155°22'.
View on Google Maps.

See reports from other nearby stations

  
Tides and Currents Weather Stations Pressure Air Temp Water Temp Dewpoint Dewpoint Depression Visibility Wind Speed Wind Dir Waves Ship Positions
date/time (UTC)wind fromknots sea level pressurealtimeterstation pressurevisibilityair tempwater tempwave heightnotes
2017-Jan-22 06:34 347 10 gusting 21 11.1
2017-Jan-22 05:34 354 11 gusting 23 11.7
2017-Jan-22 04:34 329 9 gusting 21 12.2
2017-Jan-22 03:34 340 12 gusting 24 13.9
2017-Jan-22 02:34 327 12 gusting 25 15.6
2017-Jan-22 01:34 344 13 gusting 25 17.2
2017-Jan-22 00:34 352 10 gusting 22 18.9
2017-Jan-21 23:34 358 12 gusting 26 19.4
2017-Jan-21 22:34 350 13 gusting 26 19.4
2017-Jan-21 21:34 327 12 gusting 26 20.6
2017-Jan-21 20:34 340 13 gusting 26 17.8
2017-Jan-21 19:34 336 13 gusting 27 17.2
2017-Jan-21 18:34 327 11 gusting 23 15.0
2017-Jan-21 17:34 317 12 gusting 23 12.8
2017-Jan-21 16:34 307 4 gusting 18 8.9
2017-Jan-21 15:34 313 10 gusting 17 10.6
2017-Jan-21 14:34 282 4 gusting 9 5.0
2017-Jan-21 13:34 301 4 gusting 6 5.6
2017-Jan-21 12:34 288 2 gusting 6 7.8
2017-Jan-21 11:34 284 4 gusting 7 6.7
2017-Jan-21 10:34 258 4 gusting 7 5.0
2017-Jan-21 09:34 338 2 gusting 4 5.6
2017-Jan-21 08:34 297 1 gusting 4 6.1
2017-Jan-21 07:34 251 1 gusting 2 8.9
2017-Jan-21 06:34 350 0 gusting 3 11.1
2017-Jan-21 05:34 115 0 gusting 4 12.2
2017-Jan-21 04:34 126 1 gusting 6 12.8
2017-Jan-21 03:34 116 3 gusting 8 13.9
2017-Jan-21 02:34 154 4 gusting 8 17.8
2017-Jan-21 01:34 108 5 gusting 11 19.4
2017-Jan-21 00:34 129 4 gusting 10 20.6
2017-Jan-20 23:34 117 5 gusting 10 20.0
2017-Jan-20 22:34 156 5 gusting 11 22.2
2017-Jan-20 21:34 151 4 gusting 8 21.7
2017-Jan-20 20:34 139 4 gusting 7 23.3
2017-Jan-20 19:34 140 2 gusting 5 22.8
2017-Jan-20 18:34 156 1 gusting 4 20.6
2017-Jan-20 17:34 337 1 gusting 7 12.2
2017-Jan-20 16:34 287 5 gusting 7 8.9
2017-Jan-20 15:34 286 6 gusting 7 8.3
2017-Jan-20 14:34 288 5 gusting 6 8.3
2017-Jan-20 13:34 286 5 gusting 6 8.3
2017-Jan-20 12:34 292 3 gusting 5 8.9
2017-Jan-20 11:34 289 5 gusting 7 8.9
2017-Jan-20 10:34 287 6 gusting 7 7.8
2017-Jan-20 09:34 290 6 gusting 7 7.2
2017-Jan-20 08:34 306 4 gusting 6 8.3
2017-Jan-20 07:34 317 5 gusting 6 8.9